createdAt,value
2023-01-17T00:00:35.043Z,1.80
2023-01-17T00:03:06.940Z,1.80
2023-01-17T00:05:58.885Z,1.80
2023-01-17T00:08:49.152Z,1.90
2023-01-17T00:11:20.943Z,1.90
2023-01-17T00:13:54.836Z,1.90
2023-01-17T00:16:26.650Z,1.90
2023-01-17T00:19:17.189Z,2.00
2023-01-17T00:22:07.412Z,2.00
2023-01-17T00:24:57.692Z,2.00
2023-01-17T00:27:30.570Z,2.00
2023-01-17T00:30:02.315Z,2.00
2023-01-17T00:32:33.999Z,2.10
2023-01-17T00:35:06.023Z,2.10
2023-01-17T00:37:37.716Z,2.10
2023-01-17T00:40:09.871Z,2.10
2023-01-17T00:42:41.581Z,2.10
2023-01-17T00:45:32.120Z,2.10
2023-01-17T00:48:22.451Z,2.10
2023-01-17T00:51:12.610Z,2.20
2023-01-17T00:54:02.919Z,2.10
2023-01-17T00:56:55.983Z,2.20
2023-01-17T00:59:46.408Z,2.10
2023-01-17T01:02:38.847Z,2.20
2023-01-17T01:05:29.568Z,2.10
2023-01-17T01:08:20.282Z,2.20
2023-01-17T01:11:10.442Z,2.20
2023-01-17T01:14:00.892Z,2.10
2023-01-17T01:16:51.399Z,2.10
2023-01-17T01:19:41.478Z,2.10
2023-01-17T01:22:31.738Z,2.10
2023-01-17T01:25:22.434Z,2.10
2023-01-17T01:28:20.642Z,2.10
2023-01-17T01:31:10.907Z,2.10
2023-01-17T01:33:42.693Z,2.10
2023-01-17T01:36:17.284Z,2.20
2023-01-17T01:38:50.405Z,2.20
2023-01-17T01:41:22.832Z,2.10
2023-01-17T01:43:55.820Z,2.10
2023-01-17T01:46:35.776Z,2.10
2023-01-17T01:49:20.757Z,2.10
2023-01-17T01:51:54.788Z,2.20
2023-01-17T01:54:39.827Z,2.10
2023-01-17T01:57:15.058Z,2.20
2023-01-17T01:59:51.220Z,2.10
2023-01-17T02:02:25.411Z,2.10
2023-01-17T02:04:58.734Z,2.10
2023-01-17T02:07:33.517Z,2.10
2023-01-17T02:10:07.735Z,2.10
2023-01-17T02:12:39.571Z,2.10
2023-01-17T02:15:11.612Z,2.10
2023-01-17T02:17:43.408Z,2.10
2023-01-17T02:20:26.543Z,2.10
2023-01-17T02:23:22.803Z,2.10
2023-01-17T02:26:10.277Z,2.10
2023-01-17T02:28:51.289Z,2.10
2023-01-17T02:31:41.147Z,2.10
2023-01-17T02:34:12.945Z,2.10
2023-01-17T02:36:49.297Z,2.10
2023-01-17T02:39:22.749Z,2.00
2023-01-17T02:41:57.033Z,2.00
2023-01-17T02:44:28.839Z,2.10
2023-01-17T02:47:00.593Z,2.00
2023-01-17T02:49:32.650Z,2.10
2023-01-17T02:52:16.892Z,2.00
2023-01-17T02:54:59.839Z,2.00
2023-01-17T02:57:40.596Z,2.10
2023-01-17T03:00:27.795Z,2.00
2023-01-17T03:03:22.974Z,2.00
2023-01-17T03:06:04.429Z,2.10
2023-01-17T03:08:38.601Z,2.10
2023-01-17T03:11:11.089Z,2.10
2023-01-17T03:13:42.928Z,2.10
2023-01-17T03:16:19.899Z,2.10
2023-01-17T03:18:51.816Z,2.10
2023-01-17T03:21:24.137Z,2.10
2023-01-17T03:23:55.922Z,2.10
2023-01-17T03:26:27.787Z,2.10
2023-01-17T03:29:02.342Z,2.10
2023-01-17T03:31:34.129Z,2.10
2023-01-17T03:34:05.963Z,2.10
2023-01-17T03:36:37.775Z,2.10
2023-01-17T03:39:09.513Z,2.10
2023-01-17T03:41:41.336Z,2.10
2023-01-17T03:44:13.097Z,2.10
2023-01-17T03:46:44.918Z,2.10
2023-01-17T03:49:16.844Z,2.10
2023-01-17T03:51:48.674Z,2.10
2023-01-17T03:54:22.749Z,2.10
2023-01-17T03:56:54.621Z,2.10
2023-01-17T03:59:26.449Z,2.10
2023-01-17T04:01:58.544Z,2.10
2023-01-17T04:04:30.363Z,2.10
2023-01-17T04:07:02.249Z,2.10
2023-01-17T04:09:34.712Z,2.10
2023-01-17T04:12:06.622Z,2.10
2023-01-17T04:14:38.452Z,2.10
2023-01-17T04:17:15.086Z,2.10
2023-01-17T04:19:47.183Z,2.10
2023-01-17T04:22:18.944Z,2.10
2023-01-17T04:24:50.703Z,2.10
2023-01-17T04:27:22.544Z,2.10
2023-01-17T04:29:54.306Z,2.20
2023-01-17T04:32:26.087Z,2.10
2023-01-17T04:34:57.845Z,2.10
2023-01-17T04:37:29.646Z,2.10
2023-01-17T04:40:03.766Z,2.10
2023-01-17T04:42:35.690Z,2.20
2023-01-17T04:45:07.680Z,2.10
2023-01-17T04:47:39.545Z,2.20
2023-01-17T04:50:11.664Z,2.20
2023-01-17T04:52:43.462Z,2.20
2023-01-17T04:55:15.626Z,2.20
2023-01-17T04:57:48.144Z,2.20
2023-01-17T05:00:20.970Z,2.20
2023-01-17T05:02:54.173Z,2.20
2023-01-17T05:05:25.954Z,2.20
2023-01-17T05:07:58.275Z,2.20
2023-01-17T05:10:30.089Z,2.20
2023-01-17T05:13:03.054Z,2.20
2023-01-17T05:15:36.374Z,2.20
2023-01-17T05:18:11.883Z,2.20
2023-01-17T05:20:43.956Z,2.20
2023-01-17T05:23:18.020Z,2.30
2023-01-17T05:25:49.780Z,2.30
2023-01-17T05:28:21.594Z,2.30
2023-01-17T05:30:53.339Z,2.30
2023-01-17T05:33:25.168Z,2.30
2023-01-17T05:35:57.178Z,2.30
2023-01-17T05:38:29.055Z,2.30
2023-01-17T05:41:01.408Z,2.30
2023-01-17T05:43:33.222Z,2.30
2023-01-17T05:46:05.072Z,2.30
2023-01-17T05:48:36.956Z,2.30
2023-01-17T05:51:11.186Z,2.30
2023-01-17T05:53:43.006Z,2.30
2023-01-17T05:56:14.780Z,2.30
2023-01-17T05:58:46.717Z,2.30
2023-01-17T06:01:19.712Z,2.30
2023-01-17T06:03:51.602Z,2.30
2023-01-17T06:06:23.367Z,2.30
2023-01-17T06:08:55.175Z,2.30
2023-01-17T06:11:26.956Z,2.30
2023-01-17T06:13:58.762Z,2.30
2023-01-17T06:16:30.487Z,2.30
2023-01-17T06:19:04.616Z,2.30
2023-01-17T06:21:36.359Z,2.30
2023-01-17T06:24:10.700Z,2.30
2023-01-17T06:26:45.491Z,2.30
2023-01-17T06:29:17.382Z,2.30
2023-01-17T06:31:49.186Z,2.30
2023-01-17T06:34:21.103Z,2.30
2023-01-17T06:36:52.898Z,2.30
2023-01-17T06:39:24.863Z,2.30
2023-01-17T06:42:00.259Z,2.30
2023-01-17T06:44:32.049Z,2.30
2023-01-17T06:47:04.027Z,2.30
2023-01-17T06:49:35.824Z,2.30
2023-01-17T06:52:07.560Z,2.40
2023-01-17T06:54:39.346Z,2.40
2023-01-17T06:57:11.116Z,2.40
2023-01-17T06:59:42.917Z,2.40
2023-01-17T07:02:17.126Z,2.40
2023-01-17T07:04:48.972Z,2.40
2023-01-17T07:07:20.770Z,2.40
2023-01-17T07:09:52.639Z,2.40
2023-01-17T07:12:24.412Z,2.40
2023-01-17T07:14:56.199Z,2.40
2023-01-17T07:17:28.142Z,2.50
2023-01-17T07:20:00.016Z,2.50
2023-01-17T07:22:31.757Z,2.50
2023-01-17T07:25:03.723Z,2.50
2023-01-17T07:27:35.476Z,2.50
2023-01-17T07:30:07.586Z,2.50
2023-01-17T07:32:39.425Z,2.50
2023-01-17T07:35:11.273Z,2.60
2023-01-17T07:37:47.025Z,2.60
2023-01-17T07:40:20.105Z,2.60
2023-01-17T07:42:51.884Z,2.60
2023-01-17T07:45:23.700Z,2.60
2023-01-17T07:48:00.895Z,2.60
2023-01-17T07:50:32.675Z,2.60
2023-01-17T07:53:04.930Z,2.60
2023-01-17T07:55:36.751Z,2.60
2023-01-17T07:58:08.630Z,2.60
2023-01-17T08:00:42.452Z,2.60
2023-01-17T08:03:16.049Z,2.70
2023-01-17T08:05:57.748Z,2.70
2023-01-17T08:08:31.765Z,2.70
2023-01-17T08:11:03.768Z,2.80
2023-01-17T08:13:35.520Z,2.80
2023-01-17T08:16:08.059Z,2.80
2023-01-17T08:18:40.294Z,2.80
2023-01-17T08:21:15.464Z,2.80
2023-01-17T08:23:47.798Z,2.90
2023-01-17T08:26:23.792Z,2.90
2023-01-17T08:28:55.962Z,2.90
2023-01-17T08:31:28.802Z,2.90
2023-01-17T08:34:00.942Z,3.00
2023-01-17T08:36:32.801Z,3.00
2023-01-17T08:39:04.546Z,3.00
2023-01-17T08:41:36.396Z,3.00
2023-01-17T08:44:08.142Z,3.00
2023-01-17T08:46:40.129Z,3.10
2023-01-17T08:49:12.175Z,3.10
2023-01-17T08:51:44.020Z,3.10
2023-01-17T08:54:15.786Z,3.10
2023-01-17T08:56:47.688Z,3.10
2023-01-17T08:59:19.477Z,3.10
2023-01-17T09:01:52.773Z,3.10
2023-01-17T09:04:24.640Z,3.10
2023-01-17T09:06:58.982Z,3.10
2023-01-17T09:09:30.841Z,3.20
2023-01-17T09:12:02.669Z,3.20
2023-01-17T09:14:34.995Z,3.20
2023-01-17T09:17:08.911Z,3.20
2023-01-17T09:19:47.706Z,3.20
2023-01-17T09:22:19.573Z,3.20
2023-01-17T09:24:51.391Z,3.20
2023-01-17T09:27:23.394Z,3.20
2023-01-17T09:29:57.558Z,3.30
2023-01-17T09:32:29.411Z,3.30
2023-01-17T09:35:01.368Z,3.30
2023-01-17T09:37:35.590Z,3.30
2023-01-17T09:40:10.678Z,3.30
2023-01-17T09:42:45.235Z,3.30
2023-01-17T09:45:18.202Z,3.40
2023-01-17T09:47:53.765Z,3.40
2023-01-17T09:50:39.518Z,3.40
2023-01-17T09:53:17.040Z,3.40
2023-01-17T09:55:56.286Z,3.40
2023-01-17T09:58:34.598Z,3.40
2023-01-17T10:01:29.517Z,3.50
2023-01-17T10:04:19.689Z,3.50
2023-01-17T10:06:51.942Z,3.50
2023-01-17T10:09:26.564Z,3.60
2023-01-17T10:11:58.769Z,3.60
2023-01-17T10:14:33.403Z,3.60
2023-01-17T10:17:13.662Z,3.60
2023-01-17T10:20:11.818Z,3.70
2023-01-17T10:22:51.263Z,3.70
2023-01-17T10:25:23.063Z,3.70
2023-01-17T10:27:54.837Z,3.70
2023-01-17T10:30:42.618Z,3.70
2023-01-17T10:33:26.261Z,3.70
2023-01-17T10:35:59.126Z,3.70
2023-01-17T10:38:32.726Z,3.70
2023-01-17T10:41:10.711Z,3.80
2023-01-17T10:43:45.667Z,3.80
2023-01-17T10:46:20.426Z,3.80
2023-01-17T10:48:52.596Z,3.80
2023-01-17T10:51:33.353Z,3.80
2023-01-17T10:54:16.095Z,3.90
2023-01-17T10:56:47.990Z,3.90
2023-01-17T10:59:25.844Z,3.90
2023-01-17T11:02:00.947Z,3.90
2023-01-17T11:04:37.554Z,3.90
2023-01-17T11:07:12.206Z,3.90
2023-01-17T11:09:48.323Z,3.90
2023-01-17T11:12:32.894Z,4.00
2023-01-17T11:15:04.879Z,4.00
2023-01-17T11:17:37.794Z,4.00
2023-01-17T11:20:32.010Z,4.10
2023-01-17T11:23:12.511Z,4.10
2023-01-17T11:25:50.621Z,4.20
2023-01-17T11:28:30.342Z,4.20
2023-01-17T11:31:04.302Z,4.20
2023-01-17T11:33:45.488Z,4.30
2023-01-17T11:36:23.471Z,4.30
2023-01-17T11:39:03.004Z,4.30
2023-01-17T11:41:36.855Z,4.30
2023-01-17T11:44:34.138Z,4.20
2023-01-17T11:47:09.554Z,4.20
2023-01-17T11:49:42.553Z,4.20
2023-01-17T11:52:27.390Z,4.20
2023-01-17T11:55:03.828Z,4.20
2023-01-17T11:57:36.122Z,4.20
2023-01-17T12:00:11.963Z,4.20
2023-01-17T12:03:05.796Z,4.10
2023-01-17T12:05:48.395Z,4.10
2023-01-17T12:08:32.953Z,4.10
2023-01-17T12:11:13.965Z,4.10
2023-01-17T12:14:01.043Z,4.20
2023-01-17T12:16:51.378Z,4.20
2023-01-17T12:19:43.608Z,4.10
2023-01-17T12:22:35.124Z,4.20
2023-01-17T12:25:23.029Z,4.20
2023-01-17T12:27:55.137Z,4.10
2023-01-17T12:30:45.889Z,4.10
2023-01-17T12:33:24.225Z,4.10
2023-01-17T12:35:57.706Z,4.00
2023-01-17T12:38:39.583Z,4.00
2023-01-17T12:41:14.168Z,4.00
2023-01-17T12:43:46.295Z,4.00
2023-01-17T12:46:21.490Z,4.00
2023-01-17T12:48:56.535Z,4.10
2023-01-17T12:51:30.812Z,4.10
2023-01-17T12:54:08.863Z,4.10
2023-01-17T12:56:44.319Z,4.10
2023-01-17T12:59:19.380Z,4.10
2023-01-17T13:01:57.873Z,4.10
2023-01-17T13:04:38.460Z,4.10
2023-01-17T13:07:22.953Z,4.20
2023-01-17T13:10:14.843Z,4.20
2023-01-17T13:12:47.546Z,4.20
2023-01-17T13:15:24.187Z,4.20
2023-01-17T13:18:01.052Z,4.20
2023-01-17T13:20:48.175Z,4.20
2023-01-17T13:23:39.914Z,4.10
2023-01-17T13:26:27.170Z,4.10
2023-01-17T13:29:08.093Z,4.10
2023-01-17T13:31:50.819Z,4.10
2023-01-17T13:34:28.743Z,4.10
2023-01-17T13:37:06.450Z,4.10
2023-01-17T13:39:38.214Z,4.10
2023-01-17T13:42:23.171Z,4.10
2023-01-17T13:44:55.732Z,4.10
2023-01-17T13:47:27.634Z,4.10
2023-01-17T13:49:59.501Z,4.10
2023-01-17T13:52:34.187Z,4.20
2023-01-17T13:55:07.267Z,4.20
2023-01-17T13:57:43.740Z,4.10
2023-01-17T14:00:21.653Z,4.10
2023-01-17T14:02:55.944Z,4.10
2023-01-17T14:05:30.798Z,4.00
2023-01-17T14:08:04.090Z,4.00
2023-01-17T14:10:40.936Z,4.00
2023-01-17T14:13:31.553Z,4.00
2023-01-17T14:16:05.556Z,3.90
2023-01-17T14:18:41.940Z,3.90
2023-01-17T14:21:26.357Z,3.90
2023-01-17T14:24:04.014Z,3.90
2023-01-17T14:26:36.698Z,3.90
2023-01-17T14:29:27.153Z,3.90
2023-01-17T14:32:03.843Z,3.90
2023-01-17T14:34:35.987Z,3.90
2023-01-17T14:37:27.356Z,3.80
2023-01-17T14:39:59.922Z,3.80
2023-01-17T14:42:33.201Z,3.80
2023-01-17T14:45:08.955Z,3.70
2023-01-17T14:47:44.208Z,3.70
2023-01-17T14:50:29.968Z,3.70
2023-01-17T14:53:11.013Z,3.60
2023-01-17T14:55:49.112Z,3.60
2023-01-17T14:58:20.884Z,3.60
2023-01-17T15:00:57.900Z,3.60
2023-01-17T15:03:32.019Z,3.50
2023-01-17T15:06:11.304Z,3.60
2023-01-17T15:08:45.578Z,3.50
2023-01-17T15:11:22.643Z,3.50
2023-01-17T15:13:57.643Z,3.50
2023-01-17T15:16:31.152Z,3.50
2023-01-17T15:19:03.269Z,3.50
2023-01-17T15:21:40.575Z,3.50
2023-01-17T15:24:20.293Z,3.40
2023-01-17T15:26:52.298Z,3.40
2023-01-17T15:29:25.556Z,3.30
2023-01-17T15:32:00.702Z,3.30
2023-01-17T15:34:32.487Z,3.20
2023-01-17T15:37:21.926Z,3.20
2023-01-17T15:40:01.416Z,3.20
2023-01-17T15:42:36.647Z,3.10
2023-01-17T15:45:12.704Z,3.10
2023-01-17T15:47:44.481Z,3.10
2023-01-17T15:50:26.725Z,3.10
2023-01-17T15:52:58.505Z,3.10
2023-01-17T15:55:30.286Z,3.10
2023-01-17T15:58:03.151Z,3.10
2023-01-17T16:00:39.289Z,3.10
2023-01-17T16:03:20.235Z,3.10
2023-01-17T16:05:56.963Z,3.10
2023-01-17T16:08:33.119Z,3.10
2023-01-17T16:11:06.672Z,3.00
2023-01-17T16:13:39.233Z,3.00
2023-01-17T16:16:13.632Z,2.90
2023-01-17T16:18:46.642Z,2.90
2023-01-17T16:21:26.305Z,2.90
2023-01-17T16:23:58.663Z,3.00
2023-01-17T16:26:32.825Z,3.00
2023-01-17T16:29:07.669Z,3.00
2023-01-17T16:31:39.510Z,3.00
2023-01-17T16:34:12.968Z,3.00
2023-01-17T16:36:44.826Z,3.00
2023-01-17T16:39:18.681Z,3.00
2023-01-17T16:41:50.460Z,3.00
2023-01-17T16:44:22.239Z,3.00
2023-01-17T16:46:54.689Z,2.90
2023-01-17T16:49:27.099Z,2.90
2023-01-17T16:51:59.507Z,2.90
2023-01-17T16:54:33.588Z,2.90
2023-01-17T16:57:05.381Z,2.80
2023-01-17T16:59:50.096Z,2.80
2023-01-17T17:02:23.240Z,2.80
2023-01-17T17:04:57.142Z,2.70
2023-01-17T17:07:28.959Z,2.80
2023-01-17T17:10:03.451Z,2.80
2023-01-17T17:12:35.293Z,2.80
2023-01-17T17:15:07.379Z,2.90
2023-01-17T17:17:40.590Z,2.90
2023-01-17T17:20:15.325Z,2.90
2023-01-17T17:22:53.605Z,3.00
2023-01-17T17:25:28.027Z,3.00
2023-01-17T17:27:59.834Z,3.10
2023-01-17T17:30:31.796Z,3.10
2023-01-17T17:33:06.272Z,3.20
2023-01-17T17:35:38.016Z,3.20
2023-01-17T17:38:09.835Z,3.20
2023-01-17T17:40:46.369Z,3.30
2023-01-17T17:43:18.246Z,3.20
2023-01-17T17:45:50.029Z,3.30
2023-01-17T17:48:21.883Z,3.20
2023-01-17T17:50:59.676Z,3.30
2023-01-17T17:53:31.962Z,3.20
2023-01-17T17:56:06.607Z,3.30
2023-01-17T17:58:39.543Z,3.30
2023-01-17T18:01:11.387Z,3.30
2023-01-17T18:03:46.429Z,3.30
2023-01-17T18:06:18.456Z,3.30
2023-01-17T18:08:52.212Z,3.30
2023-01-17T18:11:26.187Z,3.30
2023-01-17T18:13:59.620Z,3.30
2023-01-17T18:16:32.917Z,3.20
2023-01-17T18:19:05.006Z,3.20
2023-01-17T18:21:38.157Z,3.10
2023-01-17T18:24:12.249Z,3.00
2023-01-17T18:26:45.691Z,2.90
2023-01-17T18:29:19.661Z,2.80
2023-01-17T18:31:52.440Z,2.80
2023-01-17T18:34:29.477Z,2.70
2023-01-17T18:37:01.460Z,2.60
2023-01-17T18:39:33.368Z,2.60
2023-01-17T18:42:05.159Z,2.60
2023-01-17T18:44:39.310Z,2.60
2023-01-17T18:47:13.050Z,2.50
2023-01-17T18:49:45.162Z,2.50
2023-01-17T18:52:19.494Z,2.40
2023-01-17T18:54:51.301Z,2.40
2023-01-17T18:57:24.230Z,2.30
2023-01-17T18:59:58.690Z,2.30
2023-01-17T19:02:30.438Z,2.20
2023-01-17T19:05:08.752Z,2.20
2023-01-17T19:07:40.503Z,2.20
2023-01-17T19:10:12.387Z,2.20
2023-01-17T19:12:45.597Z,2.20
2023-01-17T19:15:17.417Z,2.20
2023-01-17T19:17:49.227Z,2.30
2023-01-17T19:20:21.104Z,2.40
2023-01-17T19:22:53.553Z,2.40
2023-01-17T19:25:25.773Z,2.50
2023-01-17T19:27:58.387Z,2.50
2023-01-17T19:30:31.205Z,2.60
2023-01-17T19:33:02.979Z,2.60
2023-01-17T19:35:37.509Z,2.60
2023-01-17T19:38:09.284Z,2.60
2023-01-17T19:40:43.456Z,2.60
2023-01-17T19:43:15.250Z,2.60
2023-01-17T19:45:59.748Z,2.60
2023-01-17T19:48:33.645Z,2.50
2023-01-17T19:51:05.601Z,2.50
2023-01-17T19:53:38.208Z,2.50
2023-01-17T19:56:10.861Z,2.50
2023-01-17T19:58:42.987Z,2.40
2023-01-17T20:01:16.456Z,2.40
2023-01-17T20:03:51.041Z,2.30
2023-01-17T20:06:26.321Z,2.30
2023-01-17T20:08:58.132Z,2.30
2023-01-17T20:11:34.655Z,2.30
2023-01-17T20:14:06.453Z,2.30
2023-01-17T20:16:38.269Z,2.30
2023-01-17T20:19:10.154Z,2.30
2023-01-17T20:21:44.695Z,2.30
2023-01-17T20:24:16.813Z,2.30
2023-01-17T20:26:48.663Z,2.30
2023-01-17T20:29:20.446Z,2.20
2023-01-17T20:31:55.218Z,2.10
2023-01-17T20:34:27.092Z,2.10
2023-01-17T20:36:59.489Z,2.10
2023-01-17T20:39:31.308Z,2.10
2023-01-17T20:42:05.481Z,2.00
2023-01-17T20:44:37.544Z,2.00
2023-01-17T20:47:11.984Z,1.90
2023-01-17T20:49:43.840Z,1.90
2023-01-17T20:52:15.673Z,1.80
2023-01-17T20:54:48.665Z,1.70
2023-01-17T20:57:22.989Z,1.70
2023-01-17T20:59:55.698Z,1.70
2023-01-17T21:02:28.594Z,1.70
2023-01-17T21:05:00.401Z,1.60
2023-01-17T21:07:32.210Z,1.60
2023-01-17T21:10:04.061Z,1.50
2023-01-17T21:12:35.871Z,1.60
2023-01-17T21:15:10.380Z,1.50
2023-01-17T21:17:44.700Z,1.50
2023-01-17T21:20:16.838Z,1.50
2023-01-17T21:22:48.698Z,1.50
2023-01-17T21:25:22.894Z,1.50
2023-01-17T21:27:55.044Z,1.40
2023-01-17T21:30:26.984Z,1.50
2023-01-17T21:32:59.020Z,1.40
2023-01-17T21:35:31.789Z,1.40
2023-01-17T21:38:03.661Z,1.40
2023-01-17T21:40:35.602Z,1.30
2023-01-17T21:43:07.712Z,1.30
2023-01-17T21:45:40.397Z,1.20
2023-01-17T21:48:12.470Z,1.20
2023-01-17T21:50:45.248Z,1.20
2023-01-17T21:53:17.141Z,1.20
2023-01-17T21:56:07.630Z,1.20
2023-01-17T21:58:49.316Z,1.20
2023-01-17T22:01:22.609Z,1.10
2023-01-17T22:03:55.886Z,1.10
2023-01-17T22:06:31.770Z,1.20
2023-01-17T22:09:03.641Z,1.10
2023-01-17T22:11:36.330Z,1.10
2023-01-17T22:14:08.119Z,1.10
2023-01-17T22:16:40.544Z,1.00
2023-01-17T22:19:12.342Z,1.00
2023-01-17T22:21:44.118Z,1.00
2023-01-17T22:24:17.580Z,1.00
2023-01-17T22:26:49.378Z,1.00
2023-01-17T22:29:22.876Z,0.90
2023-01-17T22:31:54.652Z,0.90
2023-01-17T22:34:26.500Z,0.90
2023-01-17T22:37:04.755Z,0.90
2023-01-17T22:39:36.789Z,0.80
2023-01-17T22:42:08.631Z,0.80
2023-01-17T22:44:42.681Z,0.70
2023-01-17T22:47:14.490Z,0.70
2023-01-17T22:49:46.278Z,0.60
2023-01-17T22:52:20.385Z,0.60
2023-01-17T22:54:52.284Z,0.50
2023-01-17T22:57:24.466Z,0.50
2023-01-17T22:59:56.389Z,0.40
2023-01-17T23:02:28.139Z,0.30
2023-01-17T23:05:00.091Z,0.30
2023-01-17T23:07:43.027Z,0.30
2023-01-17T23:10:34.907Z,0.20
2023-01-17T23:13:10.467Z,0.20
2023-01-17T23:16:00.936Z,0.10
2023-01-17T23:18:51.239Z,0.10
2023-01-17T23:21:25.562Z,0.00
2023-01-17T23:23:57.602Z,0.00
2023-01-17T23:26:29.376Z,-0.10
2023-01-17T23:29:01.130Z,-0.10
2023-01-17T23:31:32.944Z,-0.10
2023-01-17T23:34:04.727Z,-0.20
2023-01-17T23:36:37.030Z,-0.20
2023-01-17T23:39:09.041Z,-0.30
2023-01-17T23:41:59.578Z,-0.30
2023-01-17T23:44:32.099Z,-0.30
2023-01-17T23:47:03.988Z,-0.30
2023-01-17T23:49:35.746Z,-0.40
2023-01-17T23:52:07.550Z,-0.40
2023-01-17T23:54:39.843Z,-0.40
2023-01-17T23:57:11.679Z,-0.40
2023-01-17T23:59:43.554Z,-0.50
